createdAt,value
2022-08-19T00:01:42.112Z,77.60
2022-08-19T00:04:12.474Z,77.83
2022-08-19T00:06:40.439Z,77.83
2022-08-19T00:09:11.143Z,77.94
2022-08-19T00:11:38.798Z,77.98
2022-08-19T00:14:08.237Z,78.04
2022-08-19T00:16:34.767Z,77.82
2022-08-19T00:19:01.183Z,78.20
2022-08-19T00:21:28.308Z,77.95
2022-08-19T00:23:58.976Z,78.26
2022-08-19T00:26:27.032Z,78.81
2022-08-19T00:28:53.456Z,78.99
2022-08-19T00:31:20.442Z,79.07
2022-08-19T00:33:46.836Z,79.07
2022-08-19T00:36:13.482Z,78.96
2022-08-19T00:38:44.196Z,79.06
2022-08-19T00:41:14.486Z,78.76
2022-08-19T00:43:42.131Z,78.43
2022-08-19T00:46:08.951Z,78.43
2022-08-19T00:48:37.000Z,78.34
2022-08-19T00:51:05.284Z,78.32
2022-08-19T00:53:34.287Z,78.27
2022-08-19T00:56:02.139Z,77.99
2022-08-19T00:58:33.341Z,78.03
2022-08-19T01:01:00.543Z,78.09
2022-08-19T01:03:27.011Z,78.18
2022-08-19T01:05:55.586Z,78.26
2022-08-19T01:08:23.125Z,78.57
2022-08-19T01:11:06.327Z,78.56
2022-08-19T01:13:44.609Z,78.91
2022-08-19T01:16:22.479Z,79.15
2022-08-19T01:18:49.990Z,78.95
2022-08-19T01:21:25.338Z,78.94
2022-08-19T01:23:51.954Z,79.02
2022-08-19T01:26:22.394Z,79.16
2022-08-19T01:28:51.883Z,79.13
2022-08-19T01:31:26.734Z,79.23
2022-08-19T01:33:57.193Z,79.04
2022-08-19T01:36:29.132Z,79.01
2022-08-19T01:38:56.166Z,78.94
2022-08-19T01:41:24.406Z,79.10
2022-08-19T01:44:09.985Z,78.99
2022-08-19T01:46:44.461Z,78.84
2022-08-19T01:49:11.452Z,78.79
2022-08-19T01:51:40.302Z,78.76
2022-08-19T01:54:08.207Z,78.83
2022-08-19T01:56:34.770Z,78.74
2022-08-19T01:59:04.768Z,78.88
2022-08-19T02:01:33.371Z,78.84
2022-08-19T02:04:01.496Z,78.75
2022-08-19T02:06:29.655Z,78.73
2022-08-19T02:08:59.608Z,78.51
2022-08-19T02:11:31.468Z,78.41
2022-08-19T02:13:58.455Z,78.23
2022-08-19T02:16:29.752Z,78.40
2022-08-19T02:18:56.141Z,78.30
2022-08-19T02:21:24.387Z,78.39
2022-08-19T02:23:51.667Z,78.33
2022-08-19T02:26:19.564Z,78.71
2022-08-19T02:28:46.125Z,78.85
2022-08-19T02:31:19.418Z,78.82
2022-08-19T02:33:47.313Z,78.94
2022-08-19T02:36:20.598Z,79.01
2022-08-19T02:38:55.092Z,78.99
2022-08-19T02:41:26.874Z,79.13
2022-08-19T02:44:29.599Z,79.14
2022-08-19T02:46:49.069Z,79.32
2022-08-19T02:49:18.827Z,79.41
2022-08-19T02:51:46.791Z,79.46
2022-08-19T02:54:14.317Z,79.33
2022-08-19T02:56:42.342Z,79.31
2022-08-19T02:59:11.896Z,79.33
2022-08-19T03:01:43.639Z,79.29
2022-08-19T03:04:14.181Z,79.34
2022-08-19T03:06:43.557Z,79.50
2022-08-19T03:09:11.042Z,79.52
2022-08-19T03:11:38.398Z,79.35
2022-08-19T03:14:07.355Z,79.44
2022-08-19T03:16:40.602Z,79.30
2022-08-19T03:19:07.216Z,79.46
2022-08-19T03:21:35.324Z,79.63
2022-08-19T03:24:09.474Z,79.69
2022-08-19T03:26:40.287Z,79.81
2022-08-19T03:29:07.525Z,79.76
2022-08-19T03:31:43.871Z,79.86
2022-08-19T03:34:28.281Z,79.91
2022-08-19T03:36:56.394Z,79.88
2022-08-19T03:39:24.867Z,80.12
2022-08-19T03:42:31.708Z,80.17
2022-08-19T03:44:46.799Z,80.27
2022-08-19T03:47:19.436Z,80.07
2022-08-19T03:49:46.264Z,80.21
2022-08-19T03:52:14.298Z,80.13
2022-08-19T03:54:40.938Z,80.26
2022-08-19T03:57:07.749Z,80.54
2022-08-19T03:59:36.589Z,80.63
2022-08-19T04:02:10.057Z,80.62
2022-08-19T04:04:38.452Z,80.66
2022-08-19T04:07:05.628Z,80.84
2022-08-19T04:09:34.714Z,80.66
2022-08-19T04:12:01.172Z,80.59
2022-08-19T04:14:31.115Z,80.80
2022-08-19T04:16:59.821Z,80.71
2022-08-19T04:19:29.660Z,80.94
2022-08-19T04:21:56.545Z,80.63
2022-08-19T04:24:24.270Z,80.77
2022-08-19T04:26:51.747Z,80.83
2022-08-19T04:29:22.772Z,80.90
2022-08-19T04:31:50.016Z,80.88
2022-08-19T04:34:18.456Z,80.75
2022-08-19T04:36:52.060Z,80.75
2022-08-19T04:40:10.813Z,80.58
2022-08-19T04:42:40.514Z,80.77
2022-08-19T04:45:13.227Z,80.59
2022-08-19T04:47:46.877Z,80.43
2022-08-19T04:50:21.112Z,80.37
2022-08-19T04:52:47.550Z,80.49
2022-08-19T04:55:17.679Z,80.25
2022-08-19T04:57:44.117Z,80.22
2022-08-19T05:00:12.018Z,80.34
2022-08-19T05:02:42.720Z,80.44
2022-08-19T05:05:09.408Z,80.59
2022-08-19T05:07:36.802Z,80.62
2022-08-19T05:10:05.728Z,80.86
2022-08-19T05:12:32.244Z,81.20
2022-08-19T05:14:59.376Z,81.43
2022-08-19T05:17:29.632Z,81.75
2022-08-19T05:20:17.432Z,82.01
2022-08-19T05:22:45.803Z,82.13
2022-08-19T05:25:15.913Z,82.33
2022-08-19T05:27:43.267Z,82.50
2022-08-19T05:30:11.642Z,82.29
2022-08-19T05:32:39.211Z,82.41
2022-08-19T05:35:07.579Z,82.92
2022-08-19T05:37:34.239Z,83.22
2022-08-19T05:40:00.851Z,83.56
2022-08-19T05:42:27.393Z,83.56
2022-08-19T05:44:54.519Z,83.15
2022-08-19T05:47:22.503Z,82.75
2022-08-19T05:49:51.194Z,82.49
2022-08-19T05:52:18.850Z,82.06
2022-08-19T05:57:29.823Z,82.20
2022-08-19T05:59:58.864Z,82.17
2022-08-19T06:02:32.009Z,81.51
2022-08-19T06:04:58.688Z,80.98
2022-08-19T06:07:25.489Z,80.21
2022-08-19T06:09:58.914Z,79.21
2022-08-19T06:12:39.205Z,78.45
2022-08-19T06:15:15.449Z,78.26
2022-08-19T06:17:45.115Z,78.00
2022-08-19T06:20:15.042Z,78.08
2022-08-19T06:22:43.772Z,78.53
2022-08-19T06:25:11.498Z,79.27
2022-08-19T06:27:48.298Z,79.68
2022-08-19T06:30:25.261Z,80.06
2022-08-19T06:32:51.902Z,80.63
2022-08-19T06:35:19.790Z,80.82
2022-08-19T06:37:46.352Z,80.92
2022-08-19T06:40:13.448Z,81.17
2022-08-19T06:42:44.447Z,81.45
2022-08-19T06:45:21.451Z,81.67
2022-08-19T06:47:55.307Z,82.04
2022-08-19T06:50:21.900Z,82.24
2022-08-19T06:52:51.624Z,82.57
2022-08-19T06:55:19.757Z,82.40
2022-08-19T06:57:47.375Z,82.78
2022-08-19T07:00:15.085Z,82.83
2022-08-19T07:02:49.732Z,82.83
2022-08-19T07:05:22.157Z,83.03
2022-08-19T07:07:48.719Z,83.12
2022-08-19T07:10:17.418Z,83.08
2022-08-19T07:12:43.837Z,83.30
2022-08-19T07:15:11.756Z,83.34
2022-08-19T07:17:40.178Z,83.39
2022-08-19T07:20:09.390Z,83.58
2022-08-19T07:22:38.445Z,83.58
2022-08-19T07:25:07.221Z,83.73
2022-08-19T07:27:34.965Z,83.76
2022-08-19T07:30:12.270Z,84.02
2022-08-19T07:32:42.737Z,84.18
2022-08-19T07:35:11.491Z,84.14
2022-08-19T07:37:49.821Z,84.16
2022-08-19T07:40:18.369Z,84.16
2022-08-19T07:42:49.239Z,84.19
2022-08-19T07:45:17.948Z,84.09
2022-08-19T07:47:50.060Z,84.10
2022-08-19T07:50:20.274Z,84.30
2022-08-19T07:52:48.900Z,83.88
2022-08-19T07:55:41.840Z,83.73
2022-08-19T07:58:05.861Z,83.59
2022-08-19T08:00:32.820Z,83.52
2022-08-19T08:02:59.230Z,83.37
2022-08-19T08:05:50.172Z,83.11
2022-08-19T08:08:44.229Z,83.01
2022-08-19T08:11:16.206Z,82.97
2022-08-19T08:13:44.377Z,83.01
2022-08-19T08:16:19.871Z,83.12
2022-08-19T08:18:50.724Z,83.24
2022-08-19T08:21:19.818Z,82.96
2022-08-19T08:23:46.432Z,83.03
2022-08-19T08:26:16.326Z,82.95
2022-08-19T08:28:47.879Z,82.84
2022-08-19T08:31:16.300Z,82.78
2022-08-19T08:33:50.222Z,82.28
2022-08-19T08:36:17.249Z,82.05
2022-08-19T08:38:47.556Z,82.11
2022-08-19T08:41:28.443Z,81.75
2022-08-19T08:44:09.692Z,81.45
2022-08-19T08:46:52.738Z,81.48
2022-08-19T08:49:46.355Z,81.14
2022-08-19T08:52:25.793Z,81.09
2022-08-19T08:55:03.295Z,80.74
2022-08-19T08:57:52.074Z,80.43
2022-08-19T09:00:24.994Z,80.25
2022-08-19T09:02:51.677Z,79.75
2022-08-19T09:05:22.705Z,79.36
2022-08-19T09:08:09.771Z,79.02
2022-08-19T09:10:47.132Z,79.07
2022-08-19T09:13:25.480Z,78.99
2022-08-19T09:15:59.345Z,78.83
2022-08-19T09:18:34.296Z,78.60
2022-08-19T09:21:01.124Z,78.44
2022-08-19T09:23:27.506Z,78.13
2022-08-19T09:25:54.309Z,76.55
2022-08-19T09:28:32.624Z,75.29
2022-08-19T09:31:08.197Z,74.80
2022-08-19T09:33:34.892Z,73.50
2022-08-19T09:36:09.480Z,72.64
2022-08-19T09:38:43.696Z,72.49
2022-08-19T09:41:18.102Z,71.99
2022-08-19T09:43:53.120Z,72.42
2022-08-19T09:46:22.885Z,72.90
2022-08-19T09:48:52.310Z,72.54
2022-08-19T09:51:25.215Z,71.82
2022-08-19T09:53:55.088Z,70.43
2022-08-19T09:56:23.527Z,69.91
2022-08-19T09:58:51.730Z,69.33
2022-08-19T10:01:27.234Z,69.05
2022-08-19T10:03:59.888Z,68.39
2022-08-19T10:06:45.941Z,67.77
2022-08-19T10:09:15.649Z,66.29
2022-08-19T10:11:54.679Z,65.94
2022-08-19T10:14:24.564Z,64.53
2022-08-19T10:16:52.766Z,64.32
2022-08-19T10:19:26.024Z,64.12
2022-08-19T10:21:53.524Z,63.15
2022-08-19T10:24:21.475Z,62.40
2022-08-19T10:26:56.013Z,62.10
2022-08-19T10:29:31.809Z,62.74
2022-08-19T10:32:09.794Z,62.48
2022-08-19T10:34:48.244Z,61.00
2022-08-19T10:37:23.706Z,60.91
2022-08-19T10:39:51.345Z,60.76
2022-08-19T10:42:27.707Z,60.66
2022-08-19T10:44:54.148Z,60.37
2022-08-19T10:47:25.911Z,60.40
2022-08-19T10:50:16.585Z,59.82
2022-08-19T10:52:49.640Z,59.68
2022-08-19T10:55:41.342Z,59.44
2022-08-19T10:58:14.121Z,59.77
2022-08-19T11:00:44.063Z,60.00
2022-08-19T11:03:12.526Z,60.12
2022-08-19T11:05:40.453Z,60.32
2022-08-19T11:08:23.795Z,60.88
2022-08-19T11:10:54.486Z,61.03
2022-08-19T11:13:21.128Z,60.24
2022-08-19T11:15:48.302Z,58.71
2022-08-19T11:18:14.703Z,59.13
2022-08-19T11:20:41.208Z,59.52
2022-08-19T11:23:08.013Z,58.81
2022-08-19T11:25:35.447Z,58.28
2022-08-19T11:28:01.964Z,55.23
2022-08-19T11:30:28.832Z,54.92
2022-08-19T11:32:57.679Z,54.67
2022-08-19T11:35:27.063Z,55.47
2022-08-19T11:37:53.633Z,56.75
2022-08-19T11:40:20.313Z,57.14
2022-08-19T11:42:56.434Z,57.01
2022-08-19T11:45:28.131Z,57.55
2022-08-19T11:47:55.395Z,58.47
2022-08-19T11:50:24.263Z,58.65
2022-08-19T11:52:54.968Z,59.80
2022-08-19T11:55:21.904Z,60.99
2022-08-19T11:57:48.400Z,64.45
2022-08-19T12:00:15.729Z,68.17
2022-08-19T12:02:43.516Z,68.99
2022-08-19T12:05:12.679Z,71.13
2022-08-19T12:07:40.543Z,72.71
2022-08-19T12:10:07.370Z,74.24
2022-08-19T12:12:34.663Z,74.29
2022-08-19T12:15:01.040Z,74.20
2022-08-19T12:17:28.155Z,73.71
2022-08-19T12:19:55.394Z,74.19
2022-08-19T12:22:22.297Z,74.11
2022-08-19T12:24:51.632Z,74.01
2022-08-19T12:27:25.480Z,74.78
2022-08-19T12:30:02.696Z,73.66
2022-08-19T12:32:29.139Z,73.01
2022-08-19T12:34:55.562Z,72.86
2022-08-19T12:37:22.182Z,72.36
2022-08-19T12:39:48.633Z,72.18
2022-08-19T12:42:15.773Z,71.55
2022-08-19T12:44:43.842Z,69.90
2022-08-19T12:47:12.804Z,69.03
2022-08-19T12:49:55.268Z,68.90
2022-08-19T12:52:26.793Z,66.99
2022-08-19T12:54:55.608Z,67.93
2022-08-19T12:57:32.592Z,68.05
2022-08-19T13:00:12.466Z,67.05
2022-08-19T13:02:41.580Z,66.78
2022-08-19T13:05:12.012Z,67.09
2022-08-19T13:07:40.577Z,66.60
2022-08-19T13:10:09.942Z,67.17
2022-08-19T13:12:36.878Z,67.18
2022-08-19T13:15:03.675Z,67.00
2022-08-19T13:17:39.122Z,66.74
2022-08-19T13:20:16.453Z,67.24
2022-08-19T13:22:46.771Z,66.78
2022-08-19T13:25:14.450Z,67.30
2022-08-19T13:27:43.811Z,67.31
2022-08-19T13:30:31.168Z,67.64
2022-08-19T13:33:18.052Z,66.70
2022-08-19T13:35:58.147Z,66.69
2022-08-19T13:38:27.111Z,66.18
2022-08-19T13:40:57.505Z,66.05
2022-08-19T13:43:27.187Z,65.60
2022-08-19T13:45:56.587Z,64.50
2022-08-19T13:48:24.438Z,64.04
2022-08-19T13:50:50.971Z,63.45
2022-08-19T13:53:18.287Z,64.06
2022-08-19T13:55:45.374Z,64.16
2022-08-19T13:58:12.327Z,63.88
2022-08-19T14:00:42.885Z,63.42
2022-08-19T14:03:09.928Z,63.39
2022-08-19T14:05:37.840Z,62.60
2022-08-19T14:08:06.792Z,62.58
2022-08-19T14:10:34.416Z,61.02
2022-08-19T14:13:08.909Z,60.70
2022-08-19T14:15:35.370Z,60.41
2022-08-19T14:18:02.257Z,59.92
2022-08-19T14:20:28.908Z,59.34
2022-08-19T14:22:55.974Z,59.65
2022-08-19T14:25:25.648Z,58.84
2022-08-19T14:27:52.436Z,59.09
2022-08-19T14:30:24.129Z,59.67
2022-08-19T14:32:50.537Z,59.63
2022-08-19T14:35:17.466Z,59.41
2022-08-19T14:37:56.305Z,59.70
2022-08-19T14:40:26.905Z,59.88
2022-08-19T14:43:00.098Z,59.85
2022-08-19T14:45:31.025Z,59.94
2022-08-19T14:48:00.883Z,59.48
2022-08-19T14:50:27.735Z,58.53
2022-08-19T14:53:09.097Z,58.33
2022-08-19T14:55:45.741Z,58.32
2022-08-19T14:58:29.312Z,57.91
2022-08-19T15:00:59.886Z,59.04
2022-08-19T15:03:27.235Z,59.17
2022-08-19T15:05:56.184Z,59.31
2022-08-19T15:08:25.629Z,58.84
2022-08-19T15:10:53.059Z,59.28
2022-08-19T15:13:19.627Z,59.55
2022-08-19T15:15:49.034Z,60.55
2022-08-19T15:18:17.890Z,61.87
2022-08-19T15:20:46.729Z,62.62
2022-08-19T15:23:17.654Z,63.48
2022-08-19T15:25:44.353Z,63.21
2022-08-19T15:28:14.273Z,63.80
2022-08-19T15:30:41.194Z,63.60
2022-08-19T15:33:08.493Z,63.71
2022-08-19T15:35:34.895Z,63.87
2022-08-19T15:38:01.777Z,64.22
2022-08-19T15:40:48.771Z,65.00
2022-08-19T15:43:16.554Z,65.90
2022-08-19T15:45:49.290Z,67.12
2022-08-19T15:48:17.764Z,68.76
2022-08-19T15:50:44.134Z,71.50
2022-08-19T15:53:11.627Z,73.21
2022-08-19T15:55:45.548Z,75.94
2022-08-19T15:58:32.862Z,76.73
2022-08-19T16:01:23.961Z,77.56
2022-08-19T16:04:14.776Z,78.56
2022-08-19T16:06:46.740Z,79.05
2022-08-19T16:09:17.260Z,79.30
2022-08-19T16:11:45.983Z,79.68
2022-08-19T16:14:14.758Z,80.17
2022-08-19T16:16:47.189Z,80.64
2022-08-19T16:19:16.236Z,80.70
2022-08-19T16:21:45.805Z,80.86
2022-08-19T16:24:13.975Z,81.65
2022-08-19T16:26:42.686Z,81.77
2022-08-19T16:29:12.141Z,81.78
2022-08-19T16:31:44.470Z,82.46
2022-08-19T16:34:15.610Z,81.08
2022-08-19T16:36:43.390Z,81.30
2022-08-19T16:39:12.221Z,81.86
2022-08-19T16:41:40.531Z,81.81
2022-08-19T16:44:07.801Z,81.41
2022-08-19T16:46:37.257Z,81.21
2022-08-19T16:49:05.019Z,81.36
2022-08-19T16:51:33.725Z,81.58
2022-08-19T16:54:02.067Z,81.13
2022-08-19T16:56:29.545Z,81.16
2022-08-19T16:58:56.165Z,81.26
2022-08-19T17:01:22.703Z,81.32
2022-08-19T17:03:51.926Z,81.66
2022-08-19T17:06:21.434Z,81.51
2022-08-19T17:08:49.991Z,81.61
2022-08-19T17:11:19.064Z,81.70
2022-08-19T17:13:47.553Z,82.18
2022-08-19T17:16:19.892Z,82.54
2022-08-19T17:18:46.311Z,82.58
2022-08-19T17:21:13.078Z,82.78
2022-08-19T17:23:42.885Z,83.02
2022-08-19T17:26:16.877Z,82.36
2022-08-19T17:28:50.386Z,82.24
2022-08-19T17:31:18.747Z,81.99
2022-08-19T17:33:48.488Z,82.10
2022-08-19T17:36:23.500Z,81.66
2022-08-19T17:38:51.194Z,81.48
2022-08-19T17:41:17.579Z,80.83
2022-08-19T17:43:44.307Z,81.13
2022-08-19T17:46:17.672Z,80.84
2022-08-19T17:48:51.505Z,80.72
2022-08-19T17:51:42.098Z,80.52
2022-08-19T17:54:15.654Z,80.52
2022-08-19T17:56:43.477Z,81.02
2022-08-19T17:59:13.741Z,81.28
2022-08-19T18:01:52.643Z,80.78
2022-08-19T18:04:21.997Z,80.94
2022-08-19T18:06:53.640Z,80.70
2022-08-19T18:09:23.799Z,80.60
2022-08-19T18:11:52.744Z,80.89
2022-08-19T18:14:20.866Z,81.63
2022-08-19T18:16:47.324Z,80.98
2022-08-19T18:19:13.731Z,81.10
2022-08-19T18:21:40.757Z,81.26
2022-08-19T18:24:07.702Z,81.38
2022-08-19T18:26:34.804Z,81.07
2022-08-19T18:29:01.781Z,81.07
2022-08-19T18:31:28.997Z,81.18
2022-08-19T18:33:55.498Z,81.34
2022-08-19T18:36:50.181Z,81.56
2022-08-19T18:39:29.205Z,81.43
2022-08-19T18:42:14.351Z,81.53
2022-08-19T18:45:00.049Z,81.57
2022-08-19T18:47:45.336Z,82.25
2022-08-19T18:50:15.212Z,82.14
2022-08-19T18:52:43.139Z,82.17
2022-08-19T18:55:09.763Z,82.16
2022-08-19T18:57:36.150Z,82.02
2022-08-19T19:00:04.554Z,82.32
2022-08-19T19:02:38.503Z,82.56
2022-08-19T19:05:07.587Z,82.59
2022-08-19T19:07:34.616Z,81.78
2022-08-19T19:10:01.003Z,82.13
2022-08-19T19:12:30.652Z,81.88
2022-08-19T19:14:58.668Z,81.79
2022-08-19T19:17:28.522Z,82.03
2022-08-19T19:19:55.278Z,81.75
2022-08-19T19:22:23.437Z,82.08
2022-08-19T19:24:50.772Z,82.29
2022-08-19T19:27:20.842Z,82.09
2022-08-19T19:29:52.340Z,82.74
2022-08-19T19:32:28.524Z,82.33
2022-08-19T19:34:55.558Z,82.47
2022-08-19T19:37:22.510Z,82.35
2022-08-19T19:39:49.074Z,82.36
2022-08-19T19:42:23.837Z,82.00
2022-08-19T19:44:55.554Z,81.90
2022-08-19T19:47:27.657Z,81.92
2022-08-19T19:52:45.442Z,82.83
2022-08-19T19:55:17.711Z,83.07
2022-08-19T19:57:48.860Z,82.67
2022-08-19T20:00:22.567Z,82.72
2022-08-19T20:02:50.911Z,82.61
2022-08-19T20:05:20.695Z,82.61
2022-08-19T20:08:08.462Z,82.41
2022-08-19T20:10:35.239Z,82.71
2022-08-19T20:13:02.888Z,82.80
2022-08-19T20:15:31.260Z,82.87
2022-08-19T20:17:59.721Z,82.81
2022-08-19T20:20:26.610Z,82.13
2022-08-19T20:22:57.064Z,82.40
2022-08-19T20:25:24.235Z,82.73
2022-08-19T20:27:51.338Z,82.72
2022-08-19T20:30:21.587Z,82.67
2022-08-19T20:32:50.371Z,82.78
2022-08-19T20:35:20.965Z,82.72
2022-08-19T20:37:47.981Z,83.07
2022-08-19T20:40:16.476Z,83.09
2022-08-19T20:42:48.208Z,83.10
2022-08-19T20:45:33.292Z,83.46
2022-08-19T20:48:02.667Z,83.55
2022-08-19T20:50:32.348Z,83.16
2022-08-19T20:52:59.255Z,83.32
2022-08-19T20:55:26.588Z,83.56
2022-08-19T20:57:53.470Z,83.60
2022-08-19T21:00:20.233Z,83.43
2022-08-19T21:02:47.008Z,83.55
2022-08-19T21:05:13.735Z,83.95
2022-08-19T21:07:40.238Z,83.90
2022-08-19T21:10:08.954Z,84.24
2022-08-19T21:12:35.673Z,84.42
2022-08-19T21:15:02.353Z,84.29
2022-08-19T21:17:28.707Z,84.11
2022-08-19T21:19:58.462Z,84.44
2022-08-19T21:22:25.931Z,84.32
2022-08-19T21:24:57.870Z,84.46
2022-08-19T21:27:24.309Z,84.71
2022-08-19T21:29:51.754Z,84.40
2022-08-19T21:32:19.684Z,84.30
2022-08-19T21:34:46.898Z,84.63
2022-08-19T21:37:19.043Z,84.59
2022-08-19T21:39:53.080Z,84.64
2022-08-19T21:42:19.625Z,84.51
2022-08-19T21:44:46.206Z,84.52
2022-08-19T21:47:13.093Z,84.67
2022-08-19T21:49:39.968Z,84.74
2022-08-19T21:52:09.056Z,84.89
2022-08-19T21:54:38.028Z,84.87
2022-08-19T21:57:10.484Z,84.88
2022-08-19T21:59:39.702Z,84.35
2022-08-19T22:02:21.510Z,84.31
2022-08-19T22:04:52.625Z,84.08
2022-08-19T22:07:22.531Z,83.64
2022-08-19T22:09:51.713Z,83.50
2022-08-19T22:12:29.133Z,83.69
2022-08-19T22:14:56.739Z,83.52
2022-08-19T22:17:24.445Z,83.64
2022-08-19T22:19:54.916Z,83.96
2022-08-19T22:22:30.538Z,83.99
2022-08-19T22:25:05.720Z,84.46
2022-08-19T22:27:32.731Z,84.32
2022-08-19T22:30:03.972Z,84.25
2022-08-19T22:32:31.011Z,84.11
2022-08-19T22:34:59.137Z,83.96
2022-08-19T22:37:27.456Z,83.73
2022-08-19T22:39:56.055Z,83.88
2022-08-19T22:42:22.474Z,84.01
2022-08-19T22:44:49.176Z,84.26
2022-08-19T22:47:16.382Z,84.82
2022-08-19T22:49:44.148Z,84.71
2022-08-19T22:52:20.369Z,84.57
2022-08-19T22:55:01.543Z,84.32
2022-08-19T22:57:28.470Z,84.73
2022-08-19T22:59:56.908Z,84.67
2022-08-19T23:02:51.888Z,84.95
2022-08-19T23:05:21.903Z,84.89
2022-08-19T23:07:52.499Z,84.88
2022-08-19T23:10:26.658Z,84.98
2022-08-19T23:12:59.280Z,85.09
2022-08-19T23:15:29.995Z,85.17
2022-08-19T23:17:59.597Z,85.29
2022-08-19T23:20:29.547Z,85.10
2022-08-19T23:22:57.105Z,85.03
2022-08-19T23:25:27.666Z,84.98
2022-08-19T23:28:13.381Z,85.21
2022-08-19T23:30:44.557Z,85.23
2022-08-19T23:33:21.642Z,84.88
2022-08-19T23:35:48.492Z,85.02
2022-08-19T23:38:14.887Z,85.15
2022-08-19T23:40:41.286Z,85.34
2022-08-19T23:43:09.773Z,85.68
2022-08-19T23:45:40.696Z,85.88
2022-08-19T23:48:17.864Z,85.62
2022-08-19T23:50:47.486Z,85.56
2022-08-19T23:53:15.052Z,85.39
2022-08-19T23:55:44.643Z,85.36
2022-08-19T23:58:11.486Z,85.31
